Wickett, Texas
Current Conditions -  °F | °C
As of 9:53 AM on Thursday 23 Oct 2014 (Local Time) from KINK Reporting Station
Overcast Overcast  
Wind Chill: 58°   Ceiling: 200
Heat Index: 58°   Visibility: 10mi
Dew Point: 58°   Wind: 0mph
Humidity: 100%   Direction: NA
Pressure: 30.16"   Gusts: NA
Location:  31.57°N, 103°W
Report Text: KINK 231453Z AUTO 00000KT 10SM OVC002 14/14 A3016 RMK AO2 SLP185 T01440144 53018
Loading
Personal Weather Stations






























Interactive Weather Map
Tropical Storm Tracking
New forecast layout! Learn more

10-Day Weather Forecast

Advertisements
Track Severe Weather on mobile